Time;durP1;ratioP1;P1;durP2;ratioP2;P2;SDS_P1;SDS_P2;PMS_P1;PMS_P2;Temp;Humidity;BMP_temperature;BMP_pressure;BME280_temperature;BME280_humidity;BME280_pressure;Samples;Min_cycle;Max_cycle;Signal;HPM_P1;HPM_P2
2023/09/30 00:00:00;;;;;;;25.20;12.00;;;19.30;99.90;;;;;;4973128;28;20275;-58
2023/09/30 00:02:28;;;;;;;21.13;10.90;;;19.30;99.90;;;;;;4971921;28;20286;-58
2023/09/30 00:04:55;;;;;;;19.27;11.27;;;19.20;99.90;;;;;;4973010;28;20311;-58
2023/09/30 00:07:22;;;;;;;22.33;11.27;;;19.20;99.90;;;;;;4973089;28;20625;-58
2023/09/30 00:09:51;;;;;;;17.73;10.43;;;19.10;99.90;;;;;;4973090;28;20610;-58
2023/09/30 00:12:18;;;;;;;20.47;11.60;;;19.10;99.90;;;;;;4972588;28;20212;-58
2023/09/30 00:14:45;;;;;;;23.03;11.90;;;19.10;99.90;;;;;;4972722;28;20766;-58
2023/09/30 00:17:12;;;;;;;21.63;11.57;;;19.00;99.90;;;;;;4972996;28;20240;-58
2023/09/30 00:19:39;;;;;;;23.17;11.77;;;19.00;99.90;;;;;;4972586;28;20567;-58
2023/09/30 00:22:06;;;;;;;23.17;11.87;;;19.00;99.90;;;;;;4972451;28;20266;-58
2023/09/30 00:24:33;;;;;;;19.50;11.57;;;19.00;99.90;;;;;;4972086;28;20275;-58
2023/09/30 00:27:02;;;;;;;21.07;11.83;;;19.20;99.90;;;;;;4973306;28;20203;-58
2023/09/30 00:29:29;;;;;;;25.50;12.23;;;19.10;99.90;;;;;;4972718;28;20275;-58
2023/09/30 00:31:56;;;;;;;19.27;11.47;;;19.10;99.90;;;;;;4972204;28;20682;-58
2023/09/30 00:34:22;;;;;;;27.53;12.80;;;19.10;99.90;;;;;;4972500;28;20225;-58
2023/09/30 00:36:49;;;;;;;23.53;12.07;;;19.10;99.90;;;;;;4973089;28;20200;-58
2023/09/30 00:39:17;;;;;;;21.73;11.03;;;19.20;99.90;;;;;;4972119;28;20212;-58
2023/09/30 00:41:44;;;;;;;24.47;12.27;;;19.20;99.90;;;;;;4971887;28;20608;-58
2023/09/30 00:44:12;;;;;;;23.97;12.20;;;19.20;99.90;;;;;;4972494;28;20279;-58
2023/09/30 00:46:41;;;;;;;17.93;10.40;;;19.10;99.90;;;;;;4972597;28;20208;-58
2023/09/30 00:49:10;;;;;;;23.27;11.70;;;19.10;99.90;;;;;;4972264;28;20224;-58
2023/09/30 00:51:37;;;;;;;24.03;12.80;;;19.10;99.90;;;;;;4972093;28;20291;-58
2023/09/30 00:54:05;;;;;;;18.97;10.83;;;19.10;99.90;;;;;;4972300;28;20228;-58
2023/09/30 00:56:34;;;;;;;20.43;10.53;;;19.00;99.90;;;;;;4972483;28;20216;-58
2023/09/30 00:59:01;;;;;;;19.67;10.43;;;19.00;99.90;;;;;;4977648;28;20220;-58
2023/09/30 01:01:30;;;;;;;23.37;11.70;;;19.00;99.90;;;;;;4972106;28;20275;-58
2023/09/30 01:03:58;;;;;;;20.47;11.23;;;19.00;99.90;;;;;;4972375;28;20339;-58
2023/09/30 01:06:25;;;;;;;18.30;9.60;;;18.90;99.90;;;;;;4974709;28;20204;-58
2023/09/30 01:08:53;;;;;;;19.97;10.67;;;18.80;99.90;;;;;;4975056;28;20278;-58
2023/09/30 01:11:20;;;;;;;21.17;10.53;;;18.80;99.90;;;;;;4971778;28;20910;-58
2023/09/30 01:13:49;;;;;;;16.50;9.63;;;18.80;99.90;;;;;;4998339;23;20220;-54
2023/09/30 01:16:16;;;;;;;18.70;10.30;;;18.80;99.90;;;;;;5006958;28;20453;-54
2023/09/30 01:18:44;;;;;;;21.03;11.23;;;18.80;99.90;;;;;;5005943;28;20673;-54
2023/09/30 01:21:12;;;;;;;19.27;10.97;;;18.80;99.90;;;;;;5015358;28;20755;-54
2023/09/30 01:23:40;;;;;;;19.50;10.57;;;18.70;99.90;;;;;;5015672;28;20206;-54
2023/09/30 01:26:09;;;;;;;18.57;10.80;;;18.70;99.90;;;;;;5015632;28;20203;-54
2023/09/30 01:28:36;;;;;;;19.27;10.77;;;18.70;99.90;;;;;;5011783;28;20200;-54
2023/09/30 01:31:04;;;;;;;17.43;10.10;;;18.70;99.90;;;;;;4992107;28;20438;-54
2023/09/30 01:33:31;;;;;;;17.73;9.87;;;18.60;99.90;;;;;;5003629;28;20204;-54
2023/09/30 01:35:59;;;;;;;17.33;9.73;;;18.60;99.90;;;;;;4995871;28;20885;-54
2023/09/30 01:38:26;;;;;;;19.57;10.47;;;18.60;99.90;;;;;;4995905;28;20303;-54
2023/09/30 01:40:55;;;;;;;18.60;10.53;;;18.50;99.90;;;;;;4997712;28;20226;-54
2023/09/30 01:43:22;;;;;;;18.40;9.50;;;18.50;99.90;;;;;;5007360;28;20320;-54
2023/09/30 01:45:49;;;;;;;21.43;10.40;;;18.50;99.90;;;;;;5014460;28;20223;-54
2023/09/30 01:48:15;;;;;;;17.57;11.30;;;18.40;99.90;;;;;;5000738;28;20203;-54
2023/09/30 01:50:42;;;;;;;18.10;9.67;;;18.40;99.90;;;;;;5006743;28;20219;-54
2023/09/30 01:53:10;;;;;;;15.90;9.50;;;18.40;99.90;;;;;;5010552;28;20196;-54
2023/09/30 01:55:40;;;;;;;17.37;9.70;;;18.30;99.90;;;;;;5004090;28;20306;-55
2023/09/30 01:58:11;;;;;;;16.67;9.77;;;18.30;99.90;;;;;;5010369;28;20262;-54
2023/09/30 02:00:38;;;;;;;16.80;9.43;;;18.30;99.90;;;;;;4995573;28;20234;-54
2023/09/30 02:03:05;;;;;;;18.87;10.17;;;18.30;99.90;;;;;;4993674;28;20199;-54
2023/09/30 02:05:32;;;;;;;19.77;10.27;;;18.30;99.90;;;;;;5002597;28;20223;-54
2023/09/30 02:07:59;;;;;;;17.53;8.70;;;18.30;99.90;;;;;;5002409;28;20266;-54
2023/09/30 02:10:26;;;;;;;17.13;9.03;;;18.20;99.90;;;;;;4989165;28;20247;-54
2023/09/30 02:12:53;;;;;;;19.87;9.37;;;18.20;99.90;;;;;;5002642;28;20210;-54
2023/09/30 02:15:22;;;;;;;13.73;8.30;;;18.20;99.90;;;;;;4992605;28;20228;-54
2023/09/30 02:17:49;;;;;;;19.73;10.33;;;18.00;99.90;;;;;;4992876;28;20208;-54
2023/09/30 02:20:19;;;;;;;19.17;10.10;;;18.00;99.90;;;;;;4992403;28;20731;-54
2023/09/30 02:22:46;;;;;;;20.07;9.50;;;18.00;99.90;;;;;;4988975;28;20205;-54
2023/09/30 02:25:13;;;;;;;17.50;9.07;;;17.90;99.90;;;;;;4988206;28;20223;-54
2023/09/30 02:27:42;;;;;;;14.83;8.97;;;17.80;99.90;;;;;;4991401;28;20636;-54
2023/09/30 02:30:11;;;;;;;14.30;8.13;;;17.80;99.90;;;;;;4994176;28;20219;-54
2023/09/30 02:32:40;;;;;;;14.57;8.10;;;17.80;99.90;;;;;;4990617;28;20286;-54
2023/09/30 02:35:10;;;;;;;19.23;9.83;;;17.80;99.90;;;;;;4994035;28;20383;-54
2023/09/30 02:37:37;;;;;;;18.23;10.43;;;17.70;99.90;;;;;;4992474;28;20207;-54
2023/09/30 02:40:09;;;;;;;17.80;10.03;;;17.90;99.90;;;;;;4985638;28;20267;-54
2023/09/30 02:42:36;;;;;;;16.73;8.90;;;18.00;99.90;;;;;;4984790;28;20207;-54
2023/09/30 02:45:03;;;;;;;18.57;9.57;;;18.10;99.90;;;;;;4983642;28;20223;-54
2023/09/30 02:47:30;;;;;;;20.90;9.90;;;18.00;99.90;;;;;;4987851;28;20199;-54
2023/09/30 02:50:00;;;;;;;15.87;9.63;;;18.00;99.90;;;;;;4986044;28;20192;-54
2023/09/30 02:52:28;;;;;;;18.77;9.00;;;18.00;99.90;;;;;;4993042;28;20206;-54
2023/09/30 02:54:57;;;;;;;15.37;9.30;;;17.90;99.90;;;;;;4988653;28;20713;-54
2023/09/30 02:57:24;;;;;;;18.13;9.43;;;18.00;99.90;;;;;;4985340;28;20208;-53
2023/09/30 02:59:53;;;;;;;17.47;8.00;;;17.90;99.90;;;;;;4993298;28;20274;-54
2023/09/30 03:02:21;;;;;;;16.57;8.17;;;17.90;99.90;;;;;;4989267;28;20704;-54
2023/09/30 03:04:50;;;;;;;17.23;8.67;;;17.80;99.90;;;;;;4993491;28;20220;-54
2023/09/30 03:07:20;;;;;;;17.67;9.20;;;17.80;99.90;;;;;;4987715;28;20208;-55
2023/09/30 03:09:47;;;;;;;13.10;7.20;;;17.80;99.90;;;;;;4992346;28;20290;-54
2023/09/30 03:12:14;;;;;;;17.20;7.50;;;17.80;99.90;;;;;;4981537;28;20236;-55
2023/09/30 03:14:42;;;;;;;16.87;8.60;;;17.70;99.90;;;;;;4983608;28;20244;-55
2023/09/30 03:17:11;;;;;;;14.83;7.67;;;17.70;99.90;;;;;;4993204;28;20661;-54
2023/09/30 03:19:38;;;;;;;14.17;8.20;;;17.60;99.90;;;;;;4992837;28;20695;-54
2023/09/30 03:22:05;;;;;;;15.77;7.43;;;17.60;99.90;;;;;;4992662;28;20657;-54
2023/09/30 03:24:34;;;;;;;14.80;7.80;;;17.60;99.90;;;;;;4992738;28;20227;-54
2023/09/30 03:27:02;;;;;;;16.70;7.77;;;17.60;99.90;;;;;;4989534;28;20286;-55
2023/09/30 03:29:28;;;;;;;13.43;7.23;;;17.60;99.90;;;;;;4991092;28;20324;-54
2023/09/30 03:31:56;;;;;;;16.87;7.70;;;17.60;99.90;;;;;;4977805;28;20235;-54
2023/09/30 03:34:23;;;;;;;14.50;7.77;;;17.60;99.90;;;;;;4992690;28;20228;-54
2023/09/30 03:36:50;;;;;;;14.70;7.77;;;17.50;99.90;;;;;;4991035;28;20205;-54
2023/09/30 03:39:26;;;;;;;18.03;9.33;;;17.60;99.90;;;;;;4987452;28;20200;-54
2023/09/30 03:41:55;;;;;;;17.07;8.30;;;17.60;99.90;;;;;;4991681;28;20259;-54
2023/09/30 03:44:24;;;;;;;15.90;9.17;;;17.60;99.90;;;;;;4989845;28;20275;-54
2023/09/30 03:46:52;;;;;;;13.37;7.77;;;17.60;99.90;;;;;;4976483;28;20238;-54
2023/09/30 03:49:20;;;;;;;18.63;9.37;;;17.60;99.90;;;;;;4992287;28;20723;-54
2023/09/30 03:51:50;;;;;;;12.20;7.53;;;17.50;99.90;;;;;;4990517;28;20200;-54
2023/09/30 03:54:17;;;;;;;16.43;8.47;;;17.50;99.90;;;;;;4992396;28;20278;-55
2023/09/30 03:56:43;;;;;;;14.33;8.47;;;17.60;99.90;;;;;;4992081;28;20204;-54
2023/09/30 03:59:12;;;;;;;18.33;9.50;;;17.50;99.90;;;;;;4992297;28;20199;-54
2023/09/30 04:01:40;;;;;;;18.10;9.23;;;17.50;99.90;;;;;;4984356;28;20221;-55
2023/09/30 04:04:09;;;;;;;21.40;9.80;;;17.50;99.90;;;;;;4978472;28;20216;-54
2023/09/30 04:06:38;;;;;;;17.03;8.90;;;17.50;99.90;;;;;;4990959;28;20688;-55
2023/09/30 04:09:09;;;;;;;21.90;9.87;;;17.50;99.90;;;;;;4992345;28;20629;-54
2023/09/30 04:11:36;;;;;;;18.37;9.13;;;17.50;99.90;;;;;;4990820;28;20204;-54
2023/09/30 04:14:07;;;;;;;16.30;8.40;;;17.40;99.90;;;;;;4991737;28;20298;-54
2023/09/30 04:16:37;;;;;;;18.70;8.70;;;17.40;99.90;;;;;;4988850;28;20291;-55
2023/09/30 04:19:04;;;;;;;16.20;9.30;;;17.40;99.90;;;;;;4981895;28;20648;-54
2023/09/30 04:21:34;;;;;;;18.43;9.57;;;17.40;99.90;;;;;;4981022;28;20270;-54
2023/09/30 04:24:01;;;;;;;21.17;9.33;;;17.40;99.90;;;;;;4984887;28;20224;-55
2023/09/30 04:26:28;;;;;;;17.87;9.37;;;17.40;99.90;;;;;;4986329;28;20266;-54
2023/09/30 04:28:55;;;;;;;22.47;9.90;;;17.30;99.90;;;;;;4982122;28;20201;-54
2023/09/30 04:31:23;;;;;;;21.63;11.23;;;17.40;99.90;;;;;;4989651;28;20200;-55
2023/09/30 04:33:52;;;;;;;19.87;10.73;;;17.40;99.90;;;;;;4989401;28;20600;-55
2023/09/30 04:36:19;;;;;;;19.67;10.00;;;17.50;99.90;;;;;;4979390;28;20211;-54
2023/09/30 04:38:47;;;;;;;20.70;11.50;;;17.50;99.90;;;;;;4987503;28;20200;-54
2023/09/30 04:41:15;;;;;;;19.03;9.50;;;17.50;99.90;;;;;;4981620;28;20271;-54
2023/09/30 04:43:43;;;;;;;19.73;10.60;;;17.40;99.90;;;;;;4989591;28;20208;-55
2023/09/30 04:46:12;;;;;;;21.73;10.43;;;17.40;99.90;;;;;;4992202;28;20302;-54
2023/09/30 04:48:39;;;;;;;18.27;9.57;;;17.40;99.90;;;;;;4989719;28;20303;-54
2023/09/30 04:51:10;;;;;;;17.37;9.90;;;17.40;99.90;;;;;;4983975;28;20200;-54
2023/09/30 04:53:38;;;;;;;21.73;9.87;;;17.40;99.90;;;;;;4984206;28;20210;-54
2023/09/30 04:56:06;;;;;;;18.67;9.90;;;17.40;99.90;;;;;;4991482;28;20246;-54
2023/09/30 04:58:32;;;;;;;21.97;10.77;;;17.40;99.90;;;;;;4991262;28;20211;-54
2023/09/30 05:00:59;;;;;;;18.63;10.30;;;17.40;99.90;;;;;;4990731;28;20216;-54
2023/09/30 05:03:26;;;;;;;20.27;10.77;;;17.30;99.90;;;;;;4990428;28;20262;-54
2023/09/30 05:05:55;;;;;;;18.70;9.13;;;17.30;99.90;;;;;;4984415;28;20760;-54
2023/09/30 05:08:24;;;;;;;17.47;9.40;;;17.30;99.90;;;;;;4991817;28;20206;-54
2023/09/30 05:10:51;;;;;;;20.07;10.13;;;17.30;99.90;;;;;;4991334;28;20667;-54
2023/09/30 05:13:18;;;;;;;19.70;10.40;;;17.20;99.90;;;;;;4991500;28;20643;-54
2023/09/30 05:15:46;;;;;;;21.43;10.30;;;17.20;99.90;;;;;;4992314;28;20270;-54
2023/09/30 05:18:13;;;;;;;19.10;10.97;;;17.30;99.90;;;;;;4991650;28;20719;-54
2023/09/30 05:20:40;;;;;;;18.43;10.03;;;17.20;99.90;;;;;;4991340;28;20224;-54
2023/09/30 05:23:08;;;;;;;16.27;9.27;;;17.30;99.90;;;;;;4985486;28;20196;-54
2023/09/30 05:25:42;;;;;;;16.23;8.30;;;17.30;99.90;;;;;;4987440;28;20227;-54
2023/09/30 05:28:11;;;;;;;19.00;10.03;;;17.30;99.90;;;;;;4988127;28;20227;-54
2023/09/30 05:30:38;;;;;;;18.10;9.17;;;17.30;99.90;;;;;;4990384;28;20208;-54
2023/09/30 05:33:05;;;;;;;20.57;9.87;;;17.30;99.90;;;;;;4991267;28;20584;-54
2023/09/30 05:35:33;;;;;;;19.93;9.33;;;17.30;99.90;;;;;;4982885;28;20232;-54
2023/09/30 05:38:00;;;;;;;17.43;10.03;;;17.40;99.90;;;;;;4990185;28;20291;-54
2023/09/30 05:40:30;;;;;;;16.00;9.23;;;17.40;99.90;;;;;;4990663;28;20204;-54
2023/09/30 05:42:59;;;;;;;20.47;9.03;;;17.40;99.90;;;;;;4990453;28;20582;-54
2023/09/30 05:45:28;;;;;;;17.47;9.73;;;17.40;99.90;;;;;;4984029;28;20737;-54
2023/09/30 05:47:56;;;;;;;18.45;11.00;;;17.40;99.90;;;;;;4976666;28;20469;-54
2023/09/30 05:50:26;;;;;;;18.77;10.03;;;17.60;99.90;;;;;;4983517;28;20226;-54
2023/09/30 05:52:53;;;;;;;14.63;9.23;;;17.60;99.90;;;;;;4979676;28;20235;-54
2023/09/30 05:55:21;;;;;;;19.63;10.50;;;17.50;99.90;;;;;;4983505;28;20224;-54
2023/09/30 05:57:49;;;;;;;15.47;8.33;;;17.40;99.90;;;;;;4988531;28;20211;-54
2023/09/30 06:00:28;;;;;;;16.77;9.63;;;17.40;99.90;;;;;;4990804;28;20200;-54
2023/09/30 06:02:55;;;;;;;20.73;9.57;;;17.40;99.90;;;;;;4989045;28;20291;-54
2023/09/30 06:05:23;;;;;;;21.07;9.87;;;17.40;99.90;;;;;;4993788;28;20270;-54
2023/09/30 06:07:50;;;;;;;16.03;8.47;;;17.50;99.90;;;;;;4992343;28;20257;-54
2023/09/30 06:10:19;;;;;;;16.93;9.30;;;17.50;99.90;;;;;;4986722;28;20200;-54
2023/09/30 06:12:47;;;;;;;18.53;9.00;;;17.50;99.90;;;;;;4987663;28;20287;-54
2023/09/30 06:15:15;;;;;;;18.63;9.40;;;17.50;99.90;;;;;;4994625;28;20322;-54
2023/09/30 06:17:43;;;;;;;15.93;8.53;;;17.60;99.90;;;;;;4992714;28;20712;-54
2023/09/30 06:20:16;;;;;;;16.63;9.40;;;17.70;99.90;;;;;;4988134;28;20681;-54
2023/09/30 06:22:45;;;;;;;22.13;12.00;;;17.80;99.90;;;;;;4991289;28;20238;-54
2023/09/30 06:25:12;;;;;;;16.47;9.93;;;17.80;99.90;;;;;;4993903;28;20224;-54
2023/09/30 06:27:40;;;;;;;20.50;9.23;;;17.90;99.90;;;;;;4983129;28;20673;-60
2023/09/30 06:30:08;;;;;;;18.23;8.33;;;17.90;99.90;;;;;;4982893;28;20227;-51
2023/09/30 06:32:36;;;;;;;17.07;8.40;;;18.00;99.90;;;;;;4992292;28;20200;-52
2023/09/30 06:35:06;;;;;;;17.43;8.63;;;18.00;99.90;;;;;;4981035;28;20307;-60
2023/09/30 06:37:33;;;;;;;13.20;8.43;;;18.10;99.90;;;;;;4989727;28;20196;-61
2023/09/30 06:40:03;;;;;;;14.90;7.67;;;18.10;99.90;;;;;;4993613;28;20204;-62
2023/09/30 06:42:30;;;;;;;14.57;7.57;;;18.10;99.90;;;;;;4988290;28;20228;-51
2023/09/30 06:44:58;;;;;;;16.57;7.40;;;18.10;99.90;;;;;;4988307;28;20215;-52
2023/09/30 06:47:25;;;;;;;17.03;7.00;;;18.20;99.90;;;;;;4988773;28;20203;-54
2023/09/30 06:49:52;;;;;;;13.87;7.77;;;18.20;99.90;;;;;;4988767;28;20254;-54
2023/09/30 06:52:20;;;;;;;13.57;7.07;;;18.30;99.90;;;;;;4991574;28;20203;-53
2023/09/30 06:54:48;;;;;;;16.23;8.07;;;18.40;99.90;;;;;;4991297;28;20315;-54
2023/09/30 06:57:15;;;;;;;14.80;7.30;;;18.40;99.90;;;;;;4991224;28;20207;-54
2023/09/30 06:59:42;;;;;;;14.10;7.47;;;18.50;99.90;;;;;;4987404;28;20200;-53
2023/09/30 07:02:09;;;;;;;12.67;6.87;;;18.60;99.90;;;;;;4988216;28;20216;-53
2023/09/30 07:04:36;;;;;;;16.43;7.93;;;18.70;99.90;;;;;;4992007;28;20297;-53
2023/09/30 07:07:03;;;;;;;13.63;6.73;;;18.70;99.90;;;;;;4992852;28;20200;-54
2023/09/30 07:09:32;;;;;;;15.70;8.17;;;18.70;99.90;;;;;;4992509;28;20223;-54
2023/09/30 07:11:59;;;;;;;11.10;6.30;;;18.70;99.90;;;;;;4987886;28;20208;-54
2023/09/30 07:14:26;;;;;;;14.80;6.83;;;18.70;99.90;;;;;;5015946;23;20243;-57
2023/09/30 07:16:54;;;;;;;15.67;6.87;;;18.80;99.90;;;;;;5008717;28;20206;-57
2023/09/30 07:19:21;;;;;;;12.90;6.53;;;18.90;99.90;;;;;;4994679;28;20262;-57
2023/09/30 07:21:48;;;;;;;11.70;6.60;;;19.00;99.90;;;;;;4996432;28;20270;-57
2023/09/30 07:24:15;;;;;;;17.40;7.70;;;19.20;99.90;;;;;;5002160;28;20258;-57
2023/09/30 07:26:43;;;;;;;11.83;7.33;;;19.40;99.90;;;;;;5018933;28;20207;-57
2023/09/30 07:29:10;;;;;;;11.67;6.33;;;19.70;99.90;;;;;;5032627;28;20418;-57
2023/09/30 07:31:37;;;;;;;15.93;6.43;;;19.80;99.90;;;;;;5021167;28;20199;-57
2023/09/30 07:34:04;;;;;;;11.90;6.23;;;19.80;99.90;;;;;;5016372;28;20207;-57
2023/09/30 07:36:31;;;;;;;10.47;5.70;;;20.00;99.90;;;;;;5029765;28;20651;-57
2023/09/30 07:39:00;;;;;;;11.20;6.17;;;20.20;99.90;;;;;;5005326;28;20207;-57
2023/09/30 07:41:27;;;;;;;14.30;5.60;;;20.40;99.90;;;;;;5019614;28;20541;-57
2023/09/30 07:43:55;;;;;;;13.23;7.00;;;20.50;99.90;;;;;;5031132;28;20260;-57
2023/09/30 07:46:22;;;;;;;13.07;6.93;;;20.70;99.90;;;;;;5032384;28;20262;-57
2023/09/30 07:48:49;;;;;;;12.37;6.33;;;20.90;99.90;;;;;;5012967;28;20206;-57
2023/09/30 07:51:16;;;;;;;13.57;6.40;;;21.10;99.90;;;;;;5020346;28;20211;-57
2023/09/30 07:53:42;;;;;;;14.63;7.07;;;20.90;99.90;;;;;;5017904;28;20199;-57
2023/09/30 07:56:09;;;;;;;12.93;6.40;;;21.20;99.90;;;;;;5032264;28;20218;-57
2023/09/30 07:58:36;;;;;;;15.10;7.20;;;21.20;99.90;;;;;;5032017;28;20679;-57
2023/09/30 08:01:04;;;;;;;15.17;7.30;;;20.70;99.90;;;;;;5031610;28;20340;-57
2023/09/30 08:03:32;;;;;;;15.63;7.57;;;20.60;99.90;;;;;;5024565;28;20631;-57
2023/09/30 08:06:02;;;;;;;14.93;7.30;;;20.40;99.90;;;;;;5016834;28;20237;-57
2023/09/30 08:08:29;;;;;;;13.13;7.10;;;20.20;99.90;;;;;;5011795;28;20203;-57
2023/09/30 08:10:56;;;;;;;15.40;8.27;;;20.10;99.90;;;;;;5011792;28;20211;-57
2023/09/30 08:13:23;;;;;;;12.97;7.03;;;20.00;99.90;;;;;;5011537;28;20218;-57
2023/09/30 08:15:53;;;;;;;11.93;6.20;;;19.90;99.90;;;;;;5020619;28;20231;-57
2023/09/30 08:18:21;;;;;;;15.63;7.80;;;20.10;99.90;;;;;;5031853;28;20249;-57
2023/09/30 08:20:49;;;;;;;16.53;7.73;;;20.20;99.90;;;;;;5001284;28;20251;-57
2023/09/30 08:23:18;;;;;;;14.97;7.67;;;20.30;99.90;;;;;;4998213;28;20227;-57
2023/09/30 08:25:45;;;;;;;14.00;7.77;;;20.30;99.90;;;;;;5006059;28;20216;-57
2023/09/30 08:28:13;;;;;;;15.70;7.20;;;20.40;99.90;;;;;;5009520;28;20199;-57
2023/09/30 08:30:40;;;;;;;16.73;7.80;;;20.60;99.90;;;;;;4993152;28;20203;-57
2023/09/30 08:33:07;;;;;;;13.23;7.30;;;20.90;99.90;;;;;;5002848;28;20199;-57
2023/09/30 08:45:47;;;;;;;15.90;7.30;;;21.70;99.90;;;;;;5021045;28;20695;-57
2023/09/30 08:48:14;;;;;;;15.37;7.10;;;21.80;99.90;;;;;;5022847;28;20195;-57
2023/09/30 08:50:44;;;;;;;14.33;7.50;;;22.10;99.90;;;;;;5007444;28;20261;-57
2023/09/30 08:53:13;;;;;;;13.67;7.13;;;22.30;99.90;;;;;;5011270;28;20254;-57
2023/09/30 08:55:42;;;;;;;17.20;7.90;;;21.90;99.90;;;;;;5011411;28;20227;-57
2023/09/30 08:58:10;;;;;;;15.13;8.32;;;21.30;99.90;;;;;;5010128;28;20461;-57
2023/09/30 09:00:38;;;;;;;14.00;8.00;;;20.90;99.90;;;;;;4998323;28;20346;-64
2023/09/30 09:03:08;;;;;;;12.90;6.80;;;21.10;99.90;;;;;;5008849;28;20225;-67
2023/09/30 09:05:39;;;;;;;15.90;7.13;;;21.50;99.90;;;;;;5013909;28;20321;-66
2023/09/30 09:08:06;;;;;;;13.70;7.27;;;22.00;99.90;;;;;;5004670;28;20203;-66
2023/09/30 09:10:33;;;;;;;15.67;7.23;;;22.50;99.90;;;;;;5005121;28;20231;-67
2023/09/30 09:13:00;;;;;;;12.30;6.93;;;22.70;99.90;;;;;;4993420;28;20196;-66
2023/09/30 09:15:29;;;;;;;11.23;6.90;;;23.10;99.90;;;;;;5002134;28;20288;-68
2023/09/30 09:17:56;;;;;;;18.67;7.73;;;23.40;99.90;;;;;;5008827;28;20235;-68
2023/09/30 09:20:26;;;;;;;14.87;7.83;;;23.90;99.90;;;;;;4990812;28;20204;-67
2023/09/30 09:22:55;;;;;;;11.37;6.60;;;23.60;99.90;;;;;;4998619;28;20784;-67
2023/09/30 09:25:23;;;;;;;12.93;6.80;;;23.60;99.90;;;;;;4999778;28;20230;-66
2023/09/30 09:27:51;;;;;;;14.87;7.17;;;23.90;99.90;;;;;;5008801;28;20282;-67
2023/09/30 09:30:19;;;;;;;12.73;7.07;;;24.30;99.90;;;;;;5002265;28;20199;-66
2023/09/30 09:33:00;;;;;;;15.47;7.50;;;24.60;99.90;;;;;;4995659;28;20235;-66
2023/09/30 09:35:30;;;;;;;13.40;7.23;;;24.70;99.90;;;;;;4991209;28;20626;-65
2023/09/30 09:37:59;;;;;;;14.03;7.27;;;25.60;99.90;;;;;;5007265;28;20212;-66
2023/09/30 09:40:27;;;;;;;10.90;6.93;;;25.30;99.90;;;;;;5004884;28;20247;-67
2023/09/30 09:42:55;;;;;;;13.83;6.67;;;25.50;99.90;;;;;;5020592;28;20229;-67
2023/09/30 09:45:23;;;;;;;14.07;7.50;;;25.60;99.90;;;;;;5014195;28;20225;-66
2023/09/30 09:47:51;;;;;;;13.17;7.10;;;25.50;99.90;;;;;;5019672;28;20286;-67
2023/09/30 09:50:20;;;;;;;15.00;7.97;;;25.20;99.90;;;;;;5008536;28;20668;-65
2023/09/30 09:52:51;;;;;;;14.60;7.67;;;25.00;99.90;;;;;;5014880;28;20223;-67
2023/09/30 09:55:18;;;;;;;12.60;6.40;;;25.10;99.90;;;;;;5034269;28;20253;-67
2023/09/30 09:57:46;;;;;;;15.73;7.87;;;25.30;99.90;;;;;;5034287;28;20285;-67
2023/09/30 10:00:16;;;;;;;12.00;7.23;;;25.50;99.90;;;;;;5018792;28;20204;-66
2023/09/30 10:02:43;;;;;;;13.50;7.17;;;25.80;99.90;;;;;;5013049;28;20238;-67
2023/09/30 10:05:11;;;;;;;12.33;7.13;;;26.30;99.90;;;;;;5033934;28;20594;-67
2023/09/30 10:07:45;;;;;;;14.90;7.20;;;26.10;99.90;;;;;;5034053;28;20210;-66
2023/09/30 10:10:16;;;;;;;13.90;7.27;;;26.00;99.90;;;;;;5020370;28;20254;-66
2023/09/30 10:12:44;;;;;;;12.90;7.27;;;26.00;99.90;;;;;;5013478;28;20222;-65
2023/09/30 10:15:43;;;;;;;13.93;6.90;;;26.00;99.90;;;;;;5010461;28;20317;-62
2023/09/30 10:18:11;;;;;;;16.70;8.33;;;25.90;99.90;;;;;;4957606;28;20507;-65
2023/09/30 10:20:44;;;;;;;15.40;6.93;;;25.00;99.90;;;;;;5017811;28;20265;-68
2023/09/30 10:23:24;;;;;;;12.43;7.43;;;24.10;99.90;;;;;;5012680;28;20598;-66
2023/09/30 10:25:57;;;;;;;15.90;8.13;;;23.50;99.90;;;;;;5022189;28;20258;-67
2023/09/30 10:28:38;;;;;;;18.97;7.53;;;23.30;99.90;;;;;;5028099;28;20257;-65
2023/09/30 10:31:13;;;;;;;12.83;7.30;;;23.20;99.90;;;;;;5013258;28;20203;-66
2023/09/30 10:34:18;;;;;;;10.53;6.10;;;23.40;99.90;;;;;;5001794;28;20265;-57
2023/09/30 10:36:47;;;;;;;11.70;6.37;;;23.60;99.90;;;;;;4989744;28;20711;-58
2023/09/30 10:39:17;;;;;;;12.73;6.87;;;23.40;99.90;;;;;;5003092;28;20294;-57
2023/09/30 10:41:53;;;;;;;13.77;7.50;;;23.40;99.90;;;;;;5002899;28;20203;-58
2023/09/30 10:44:36;;;;;;;16.53;7.50;;;23.30;99.90;;;;;;5002037;28;20195;-58
2023/09/30 10:47:37;;;;;;;15.80;7.17;;;23.00;99.90;;;;;;5012286;28;20203;-58
2023/09/30 10:50:05;;;;;;;19.40;7.20;;;22.90;99.90;;;;;;5002931;28;20830;-57
2023/09/30 10:52:33;;;;;;;14.83;7.57;;;23.00;99.90;;;;;;4998030;28;20216;-59
2023/09/30 10:55:06;;;;;;;14.97;8.40;;;22.90;99.90;;;;;;4994371;28;20242;-68
2023/09/30 10:57:35;;;;;;;11.57;6.37;;;22.90;99.90;;;;;;4995727;28;20208;-65
2023/09/30 11:00:10;;;;;;;12.87;7.63;;;22.70;99.90;;;;;;5008032;28;20286;-66
2023/09/30 11:02:50;;;;;;;15.13;7.10;;;22.80;99.90;;;;;;5004601;28;20269;-68
2023/09/30 11:05:18;;;;;;;11.33;7.07;;;22.80;99.90;;;;;;4996970;28;20230;-67
2023/09/30 11:07:48;;;;;;;19.23;8.33;;;23.10;99.90;;;;;;4997559;28;20291;-65
2023/09/30 11:10:18;;;;;;;15.90;7.97;;;22.80;99.90;;;;;;4998918;28;20261;-66
2023/09/30 11:12:57;;;;;;;15.77;6.70;;;22.80;99.90;;;;;;4998189;28;20633;-66
2023/09/30 11:15:24;;;;;;;14.33;7.00;;;22.90;99.90;;;;;;5004071;28;20227;-67
2023/09/30 11:17:52;;;;;;;16.47;7.77;;;22.90;99.90;;;;;;5000802;28;20207;-66
2023/09/30 11:20:22;;;;;;;13.57;7.03;;;22.80;99.90;;;;;;4999517;28;20204;-67
2023/09/30 11:22:49;;;;;;;9.83;6.90;;;23.00;99.90;;;;;;4992574;28;20330;-67
2023/09/30 11:25:19;;;;;;;12.43;6.90;;;22.70;99.90;;;;;;4997569;28;20301;-63
2023/09/30 11:27:46;;;;;;;15.43;7.53;;;22.80;99.90;;;;;;5001643;28;20208;-67
2023/09/30 11:30:15;;;;;;;12.40;6.23;;;22.70;99.90;;;;;;5006866;28;20283;-67
2023/09/30 11:32:43;;;;;;;14.47;6.33;;;22.80;99.90;;;;;;4996080;28;20211;-65
2023/09/30 11:35:11;;;;;;;10.67;5.60;;;22.80;99.90;;;;;;5004461;28;20269;-67
2023/09/30 11:37:38;;;;;;;14.30;6.33;;;22.90;99.90;;;;;;4999409;28;20250;-66
2023/09/30 11:40:14;;;;;;;14.23;6.97;;;23.00;99.90;;;;;;5000278;28;20200;-69
2023/09/30 11:42:41;;;;;;;15.97;7.00;;;23.00;99.90;;;;;;4999973;28;20223;-64
2023/09/30 11:45:22;;;;;;;13.53;7.60;;;22.90;99.90;;;;;;5005234;28;20226;-67
2023/09/30 11:47:49;;;;;;;13.70;6.93;;;22.80;99.90;;;;;;5001151;28;20239;-69
2023/09/30 11:50:17;;;;;;;12.33;5.67;;;22.60;99.90;;;;;;4995320;28;20303;-67
2023/09/30 11:52:47;;;;;;;10.87;7.13;;;22.70;99.90;;;;;;4996333;28;20688;-65
2023/09/30 11:55:16;;;;;;;12.90;6.67;;;22.80;99.90;;;;;;4995247;28;20237;-68
2023/09/30 11:57:43;;;;;;;9.90;5.77;;;22.90;99.90;;;;;;4996128;28;20437;-67
2023/09/30 12:00:18;;;;;;;13.30;7.87;;;22.80;99.90;;;;;;4996533;28;20196;-66
2023/09/30 12:02:46;;;;;;;15.37;6.20;;;22.80;99.90;;;;;;4993753;28;20277;-68
2023/09/30 12:05:13;;;;;;;13.00;7.10;;;22.90;99.90;;;;;;5004012;28;20262;-65
2023/09/30 12:07:41;;;;;;;14.60;7.37;;;23.00;99.90;;;;;;4995363;28;20283;-64
2023/09/30 12:10:09;;;;;;;13.17;6.80;;;23.00;99.90;;;;;;5000158;28;20233;-65
2023/09/30 12:12:38;;;;;;;13.40;7.20;;;23.10;99.90;;;;;;5009433;28;20207;-65
2023/09/30 12:15:09;;;;;;;13.53;7.53;;;23.00;99.90;;;;;;5001095;28;20254;-65
2023/09/30 12:17:37;;;;;;;13.47;7.13;;;23.00;99.90;;;;;;5011707;28;20706;-65
2023/09/30 12:20:06;;;;;;;14.43;7.27;;;23.00;99.90;;;;;;5001912;28;20648;-68
2023/09/30 12:22:33;;;;;;;14.17;7.50;;;23.00;99.90;;;;;;5002567;28;20380;-68
2023/09/30 12:25:00;;;;;;;16.23;7.43;;;22.90;99.90;;;;;;5005371;28;20319;-67
2023/09/30 12:27:27;;;;;;;13.63;7.53;;;22.80;99.90;;;;;;5014793;28;20198;-65
2023/09/30 12:29:55;;;;;;;17.03;8.50;;;22.80;99.90;;;;;;5008052;28;20644;-65
2023/09/30 12:32:23;;;;;;;11.80;7.47;;;22.80;99.90;;;;;;5000011;28;20673;-64
2023/09/30 12:34:50;;;;;;;13.10;6.77;;;22.60;99.90;;;;;;5001102;28;20274;-69
2023/09/30 12:37:19;;;;;;;13.40;7.57;;;22.40;99.90;;;;;;4991829;28;20232;-68
2023/09/30 12:39:47;;;;;;;12.40;6.67;;;22.30;99.90;;;;;;5001852;28;20207;-68
2023/09/30 12:42:15;;;;;;;14.53;7.30;;;22.40;99.90;;;;;;5006244;28;20227;-68
2023/09/30 12:44:42;;;;;;;14.30;6.47;;;22.40;99.90;;;;;;4997696;28;20317;-69
2023/09/30 12:47:09;;;;;;;16.43;9.03;;;22.30;99.90;;;;;;4991332;28;20208;-64
2023/09/30 12:49:36;;;;;;;14.30;7.70;;;22.20;99.90;;;;;;5001705;28;20258;-68
2023/09/30 12:52:04;;;;;;;16.23;7.97;;;22.10;99.90;;;;;;4994857;28;20278;-68